createdAt,value
2018-04-08T00:00:14.132Z,9.90
2018-04-08T00:02:42.444Z,9.90
2018-04-08T00:05:10.786Z,9.80
2018-04-08T00:07:39.095Z,9.80
2018-04-08T00:10:07.434Z,9.70
2018-04-08T00:12:35.752Z,9.70
2018-04-08T00:15:04.084Z,9.70
2018-04-08T00:17:32.410Z,9.60
2018-04-08T00:20:00.750Z,9.60
2018-04-08T00:22:29.074Z,9.60
2018-04-08T00:24:57.430Z,9.50
2018-04-08T00:27:25.740Z,9.50
2018-04-08T00:29:54.072Z,9.50
2018-04-08T00:32:22.391Z,9.50
2018-04-08T00:34:50.718Z,9.50
2018-04-08T00:37:19.043Z,9.50
2018-04-08T00:39:47.378Z,9.50
2018-04-08T00:42:15.691Z,9.50
2018-04-08T00:44:44.027Z,9.50
2018-04-08T00:47:12.342Z,9.50
2018-04-08T00:49:40.692Z,9.50
2018-04-08T00:52:09.012Z,9.60
2018-04-08T00:54:37.328Z,9.70
2018-04-08T00:57:05.664Z,9.70
2018-04-08T00:59:33.980Z,9.70
2018-04-08T01:02:02.303Z,9.70
2018-04-08T01:04:30.626Z,9.80
2018-04-08T01:06:58.968Z,9.80
2018-04-08T01:09:27.306Z,9.80
2018-04-08T01:11:55.632Z,9.80
2018-04-08T01:14:23.943Z,9.80
2018-04-08T01:16:52.290Z,9.70
2018-04-08T01:19:20.609Z,9.70
2018-04-08T01:21:48.946Z,9.60
2018-04-08T01:24:17.261Z,9.60
2018-04-08T01:26:45.591Z,9.60
2018-04-08T01:29:13.898Z,9.50
2018-04-08T01:31:42.238Z,9.50
2018-04-08T01:34:10.560Z,9.50
2018-04-08T01:36:38.897Z,9.50
2018-04-08T01:39:07.212Z,9.50
2018-04-08T01:41:35.550Z,9.50
2018-04-08T01:44:04.178Z,9.50
2018-04-08T01:46:32.515Z,9.50
2018-04-08T01:49:00.827Z,9.50
2018-04-08T01:51:29.165Z,9.50
2018-04-08T01:53:57.481Z,9.50
2018-04-08T01:56:25.824Z,9.50
2018-04-08T01:58:54.136Z,9.50
2018-04-08T02:01:22.506Z,9.50
2018-04-08T02:03:50.818Z,9.50
2018-04-08T02:06:19.162Z,9.50
2018-04-08T02:08:47.470Z,9.50
2018-04-08T02:11:15.808Z,9.40
2018-04-08T02:13:44.117Z,9.40
2018-04-08T02:16:11.691Z,9.40
2018-04-08T02:18:40.015Z,9.30
2018-04-08T02:21:08.347Z,9.30
2018-04-08T02:23:36.651Z,9.20
2018-04-08T02:26:05.001Z,9.20
2018-04-08T02:28:33.315Z,9.10
2018-04-08T02:31:01.673Z,9.10
2018-04-08T02:33:29.983Z,9.00
2018-04-08T02:35:58.302Z,9.00
2018-04-08T02:38:26.644Z,9.00
2018-04-08T02:40:54.962Z,9.00
2018-04-08T02:43:23.303Z,9.00
2018-04-08T02:45:51.631Z,9.10
2018-04-08T02:48:19.968Z,9.10
2018-04-08T02:50:48.283Z,9.10
2018-04-08T02:53:16.635Z,9.10
2018-04-08T02:55:44.962Z,9.10
2018-04-08T02:58:13.942Z,9.20
2018-04-08T03:00:42.263Z,9.20
2018-04-08T03:03:10.625Z,9.20
2018-04-08T03:05:38.937Z,9.20
2018-04-08T03:08:07.277Z,9.20
2018-04-08T03:10:35.596Z,9.10
2018-04-08T03:13:03.932Z,9.10
2018-04-08T03:15:32.251Z,9.10
2018-04-08T03:18:00.586Z,9.20
2018-04-08T03:20:28.887Z,9.20
2018-04-08T03:22:57.221Z,9.20
2018-04-08T03:25:25.538Z,9.20
2018-04-08T03:27:53.872Z,9.30
2018-04-08T03:30:22.182Z,9.30
2018-04-08T03:32:50.521Z,9.30
2018-04-08T03:35:18.834Z,9.30
2018-04-08T03:37:47.176Z,9.30
2018-04-08T03:40:15.497Z,9.30
2018-04-08T03:42:43.844Z,9.30
2018-04-08T03:45:12.153Z,9.30
2018-04-08T03:47:40.488Z,9.20
2018-04-08T03:50:08.850Z,9.20
2018-04-08T03:52:37.176Z,9.20
2018-04-08T03:55:05.499Z,9.10
2018-04-08T03:57:33.831Z,9.10
2018-04-08T04:00:02.152Z,9.00
2018-04-08T04:02:30.495Z,9.00
2018-04-08T04:04:58.812Z,9.00
2018-04-08T04:07:27.147Z,8.90
2018-04-08T04:09:55.466Z,8.90
2018-04-08T04:12:23.804Z,8.90
2018-04-08T04:14:52.115Z,8.90
2018-04-08T04:17:20.433Z,8.90
2018-04-08T04:20:00.736Z,8.90
2018-04-08T04:22:40.892Z,8.90
2018-04-08T04:25:25.725Z,8.90
2018-04-08T04:27:54.082Z,8.90
2018-04-08T04:30:22.411Z,8.90
2018-04-08T04:32:50.750Z,8.90
2018-04-08T04:35:19.109Z,8.90
2018-04-08T04:37:47.461Z,8.90
2018-04-08T04:40:15.778Z,8.80
2018-04-08T04:42:44.091Z,8.80
2018-04-08T04:45:12.418Z,8.80
2018-04-08T04:47:40.725Z,8.80
2018-04-08T04:50:09.062Z,8.70
2018-04-08T04:52:37.376Z,8.80
2018-04-08T04:55:05.704Z,8.80
2018-04-08T04:57:34.029Z,8.90
2018-04-08T05:00:02.360Z,8.90
2018-04-08T05:02:30.672Z,8.90
2018-04-08T05:04:59.012Z,9.00
2018-04-08T05:07:27.328Z,9.00
2018-04-08T05:09:55.662Z,9.10
2018-04-08T05:12:23.974Z,9.10
2018-04-08T05:14:52.311Z,9.10
2018-04-08T05:17:20.619Z,9.10
2018-04-08T05:19:48.955Z,9.10
2018-04-08T05:22:17.268Z,9.20
2018-04-08T05:24:45.606Z,9.20
2018-04-08T05:27:13.914Z,9.30
2018-04-08T05:29:42.264Z,9.40
2018-04-08T05:32:10.577Z,9.50
2018-04-08T05:34:38.907Z,9.60
2018-04-08T05:37:07.231Z,9.60
2018-04-08T05:39:35.568Z,9.70
2018-04-08T05:42:03.873Z,9.80
2018-04-08T05:44:32.211Z,9.80
2018-04-08T05:47:00.521Z,9.80
2018-04-08T05:49:28.858Z,9.80
2018-04-08T05:51:57.171Z,9.90
2018-04-08T05:54:25.510Z,9.90
2018-04-08T05:56:53.826Z,10.10
2018-04-08T05:59:22.174Z,10.20
2018-04-08T06:01:50.498Z,10.30
2018-04-08T06:04:18.862Z,10.40
2018-04-08T06:06:47.181Z,10.40
2018-04-08T06:09:15.510Z,10.50
2018-04-08T06:11:43.835Z,10.50
2018-04-08T06:14:12.155Z,10.60
2018-04-08T06:16:40.502Z,10.70
2018-04-08T06:19:08.830Z,10.80
2018-04-08T06:21:37.181Z,10.80
2018-04-08T06:24:05.502Z,10.90
2018-04-08T06:26:33.840Z,10.90
2018-04-08T06:29:02.159Z,11.00
2018-04-08T06:31:30.498Z,11.10
2018-04-08T06:33:58.831Z,11.10
2018-04-08T06:36:27.165Z,11.20
2018-04-08T06:38:55.479Z,11.30
2018-04-08T06:41:23.820Z,11.40
2018-04-08T06:43:52.145Z,11.50
2018-04-08T06:46:20.488Z,11.60
2018-04-08T06:48:48.808Z,11.70
2018-04-08T06:51:17.147Z,11.70
2018-04-08T06:53:45.512Z,11.80
2018-04-08T06:56:13.851Z,11.80
2018-04-08T06:58:42.159Z,11.80
2018-04-08T07:01:10.498Z,11.90
2018-04-08T07:03:38.818Z,12.00
2018-04-08T07:06:07.183Z,12.10
2018-04-08T07:08:35.495Z,12.20
2018-04-08T07:11:03.842Z,12.30
2018-04-08T07:13:32.164Z,12.50
2018-04-08T07:16:00.498Z,12.60
2018-04-08T07:18:28.842Z,12.60
2018-04-08T07:20:57.175Z,12.80
2018-04-08T07:23:25.497Z,12.90
2018-04-08T07:25:53.831Z,13.10
2018-04-08T07:28:22.153Z,13.20
2018-04-08T07:30:50.482Z,13.30
2018-04-08T07:33:18.798Z,13.50
2018-04-08T07:35:47.191Z,13.60
2018-04-08T07:38:15.511Z,13.80
2018-04-08T07:40:43.860Z,14.00
2018-04-08T07:43:12.183Z,14.20
2018-04-08T07:45:40.528Z,14.30
2018-04-08T07:48:08.846Z,14.50
2018-04-08T07:50:37.194Z,14.60
2018-04-08T07:53:05.542Z,14.70
2018-04-08T07:55:33.878Z,14.70
2018-04-08T07:58:02.203Z,14.80
2018-04-08T08:00:30.511Z,14.90
2018-04-08T08:02:58.843Z,15.10
2018-04-08T08:05:27.200Z,15.20
2018-04-08T08:07:55.531Z,15.30
2018-04-08T08:10:23.838Z,15.50
2018-04-08T08:12:52.172Z,15.70
2018-04-08T08:15:20.489Z,15.90
2018-04-08T08:17:48.843Z,16.10
2018-04-08T08:20:17.157Z,16.20
2018-04-08T08:22:45.499Z,16.30
2018-04-08T08:25:13.802Z,16.40
2018-04-08T08:27:42.132Z,16.60
2018-04-08T08:30:10.443Z,16.80
2018-04-08T08:32:38.775Z,16.90
2018-04-08T08:35:07.097Z,17.00
2018-04-08T08:37:35.432Z,17.00
2018-04-08T08:40:03.744Z,17.10
2018-04-08T08:42:32.074Z,17.10
2018-04-08T08:45:00.382Z,17.20
2018-04-08T08:47:28.716Z,17.30
2018-04-08T08:49:56.264Z,17.30
2018-04-08T08:52:24.604Z,17.50
2018-04-08T08:54:52.933Z,17.60
2018-04-08T08:57:20.526Z,17.50
2018-04-08T08:59:48.875Z,17.80
2018-04-08T09:02:17.220Z,18.00
2018-04-08T09:04:45.532Z,18.20
2018-04-08T09:07:13.870Z,18.40
2018-04-08T09:09:42.198Z,18.70
2018-04-08T09:12:10.572Z,18.90
2018-04-08T09:14:39.137Z,19.10
2018-04-08T09:17:07.474Z,19.40
2018-04-08T09:19:51.687Z,19.70
2018-04-08T09:22:38.815Z,20.00
2018-04-08T09:25:07.135Z,20.20
2018-04-08T09:27:35.481Z,20.30
2018-04-08T09:30:03.806Z,20.50
2018-04-08T09:32:32.150Z,20.60
2018-04-08T09:35:00.472Z,20.80
2018-04-08T09:37:28.816Z,21.10
2018-04-08T09:39:57.139Z,21.50
2018-04-08T09:42:25.471Z,21.90
2018-04-08T09:44:53.787Z,22.30
2018-04-08T09:47:22.142Z,22.30
2018-04-08T09:49:50.539Z,22.20
2018-04-08T09:52:18.897Z,22.10
2018-04-08T09:54:47.220Z,22.10
2018-04-08T09:57:15.567Z,22.00
2018-04-08T09:59:43.893Z,22.00
2018-04-08T10:02:31.119Z,22.00
2018-04-08T10:04:59.446Z,22.00
2018-04-08T10:07:27.783Z,22.10
2018-04-08T10:09:56.103Z,22.30
2018-04-08T10:12:24.416Z,22.30
2018-04-08T10:14:52.755Z,22.40
2018-04-08T10:17:21.069Z,22.50
2018-04-08T10:19:49.412Z,22.60
2018-04-08T10:22:17.727Z,22.80
2018-04-08T10:24:46.062Z,23.00
2018-04-08T10:27:14.369Z,23.20
2018-04-08T10:29:42.724Z,23.40
2018-04-08T10:32:11.063Z,23.50
2018-04-08T10:34:39.397Z,23.50
2018-04-08T10:37:07.707Z,23.60
2018-04-08T10:39:36.040Z,23.60
2018-04-08T10:42:04.352Z,23.60
2018-04-08T10:44:32.704Z,23.70
2018-04-08T10:47:01.017Z,23.70
2018-04-08T10:49:29.360Z,23.90
2018-04-08T10:51:57.671Z,23.80
2018-04-08T10:54:26.005Z,23.90
2018-04-08T10:56:54.323Z,24.20
2018-04-08T10:59:22.664Z,24.10
2018-04-08T11:01:50.985Z,24.10
2018-04-08T11:04:19.326Z,24.00
2018-04-08T11:06:47.642Z,23.70
2018-04-08T11:09:15.981Z,23.60
2018-04-08T11:11:44.308Z,23.50
2018-04-08T11:14:12.641Z,23.30
2018-04-08T11:16:40.954Z,23.30
2018-04-08T11:19:09.287Z,23.40
2018-04-08T11:21:37.611Z,23.50
2018-04-08T11:24:05.939Z,23.50
2018-04-08T11:26:34.251Z,23.50
2018-04-08T11:29:02.589Z,23.40
2018-04-08T11:31:30.910Z,23.30
2018-04-08T11:33:59.231Z,23.10
2018-04-08T11:36:27.566Z,23.10
2018-04-08T11:38:55.883Z,23.20
2018-04-08T11:41:24.218Z,23.50
2018-04-08T11:43:52.552Z,23.60
2018-04-08T11:46:20.891Z,23.70
2018-04-08T11:48:49.207Z,23.80
2018-04-08T11:51:17.545Z,24.30
2018-04-08T11:53:45.860Z,24.60
2018-04-08T11:56:14.199Z,25.00
2018-04-08T11:58:42.508Z,25.50
2018-04-08T12:01:12.952Z,25.60
2018-04-08T12:03:41.258Z,25.70
2018-04-08T12:06:10.465Z,25.80
2018-04-08T12:08:39.630Z,25.90
2018-04-08T12:11:07.974Z,26.00
2018-04-08T12:13:35.832Z,25.90
2018-04-08T12:16:04.171Z,26.00
2018-04-08T12:18:32.054Z,25.90
2018-04-08T12:21:00.387Z,25.80
2018-04-08T12:23:28.703Z,25.80
2018-04-08T12:25:57.099Z,25.90
2018-04-08T12:28:25.411Z,26.00
2018-04-08T12:30:53.758Z,26.10
2018-04-08T12:33:22.086Z,26.10
2018-04-08T12:35:50.423Z,26.00
2018-04-08T12:38:18.758Z,26.00
2018-04-08T12:40:47.101Z,26.10
2018-04-08T12:43:15.413Z,26.10
2018-04-08T12:45:43.738Z,26.00
2018-04-08T12:48:12.060Z,26.00
2018-04-08T12:50:40.411Z,26.10
2018-04-08T12:53:08.718Z,26.20
2018-04-08T12:55:37.048Z,26.40
2018-04-08T12:58:05.365Z,26.60
2018-04-08T13:00:33.742Z,26.70
2018-04-08T13:03:02.049Z,26.80
2018-04-08T13:05:30.379Z,27.00
2018-04-08T13:07:58.691Z,27.20
2018-04-08T13:10:27.164Z,27.40
2018-04-08T13:12:55.688Z,27.30
2018-04-08T13:15:24.056Z,27.20
2018-04-08T13:17:52.401Z,27.10
2018-04-08T13:20:20.721Z,26.90
2018-04-08T13:22:49.051Z,26.70
2018-04-08T13:25:17.368Z,26.70
2018-04-08T13:27:45.695Z,26.90
2018-04-08T13:30:14.013Z,26.90
2018-04-08T13:32:42.348Z,27.00
2018-04-08T13:35:10.657Z,27.00
2018-04-08T13:37:38.990Z,27.00
2018-04-08T13:40:07.299Z,27.00
2018-04-08T13:42:35.628Z,27.00
2018-04-08T13:45:03.936Z,27.20
2018-04-08T13:47:32.277Z,27.10
2018-04-08T13:50:00.592Z,27.00
2018-04-08T13:52:28.923Z,27.10
2018-04-08T13:54:57.240Z,27.20
2018-04-08T13:57:25.573Z,27.00
2018-04-08T13:59:53.879Z,26.90
2018-04-08T14:02:22.208Z,26.90
2018-04-08T14:04:50.526Z,27.00
2018-04-08T14:07:18.860Z,27.00
2018-04-08T14:09:47.177Z,26.80
2018-04-08T14:12:15.515Z,26.70
2018-04-08T14:14:43.843Z,26.90
2018-04-08T14:17:12.172Z,27.00
2018-04-08T14:19:40.480Z,27.00
2018-04-08T14:22:08.810Z,27.10
2018-04-08T14:24:37.171Z,27.10
2018-04-08T14:27:05.478Z,27.00
2018-04-08T14:29:33.782Z,27.00
2018-04-08T14:32:02.120Z,26.80
2018-04-08T14:34:30.439Z,26.80
2018-04-08T14:36:58.772Z,26.90
2018-04-08T14:39:27.079Z,26.90
2018-04-08T14:41:55.411Z,26.70
2018-04-08T14:44:23.720Z,26.70
2018-04-08T14:46:52.091Z,26.90
2018-04-08T14:49:20.402Z,27.10
2018-04-08T14:51:48.728Z,27.10
2018-04-08T14:54:17.038Z,27.00
2018-04-08T14:56:45.389Z,26.90
2018-04-08T14:59:13.718Z,26.80
2018-04-08T15:01:46.663Z,26.80
2018-04-08T15:04:10.389Z,26.90
2018-04-08T15:06:38.694Z,27.00
2018-04-08T15:09:07.043Z,27.00
2018-04-08T15:11:35.361Z,27.20
2018-04-08T15:14:03.704Z,27.00
2018-04-08T15:16:32.020Z,26.90
2018-04-08T15:19:00.354Z,27.00
2018-04-08T15:21:28.664Z,27.00
2018-04-08T15:23:56.999Z,27.00
2018-04-08T15:26:25.310Z,27.00
2018-04-08T15:28:53.636Z,26.90
2018-04-08T15:31:21.954Z,26.70
2018-04-08T15:33:50.288Z,26.60
2018-04-08T15:36:18.828Z,26.60
2018-04-08T15:38:47.172Z,26.60
2018-04-08T15:41:15.497Z,26.60
2018-04-08T15:43:43.371Z,26.70
2018-04-08T15:46:11.683Z,26.80
2018-04-08T15:48:40.021Z,26.80
2018-04-08T15:51:08.334Z,26.70
2018-04-08T15:53:36.674Z,26.70
2018-04-08T15:56:04.983Z,26.60
2018-04-08T15:58:33.316Z,26.60
2018-04-08T16:01:01.640Z,26.70
2018-04-08T16:03:29.989Z,26.80
2018-04-08T16:05:58.296Z,26.70
2018-04-08T16:08:26.161Z,26.60
2018-04-08T16:10:54.471Z,26.60
2018-04-08T16:13:22.794Z,26.40
2018-04-08T16:15:51.153Z,26.40
2018-04-08T16:18:19.486Z,26.40
2018-04-08T16:20:47.811Z,26.20
2018-04-08T16:23:16.142Z,26.10
2018-04-08T16:25:44.455Z,26.00
2018-04-08T16:28:12.789Z,26.10
2018-04-08T16:30:41.103Z,26.10
2018-04-08T16:33:09.431Z,26.00
2018-04-08T16:35:37.744Z,25.80
2018-04-08T16:38:06.054Z,25.60
2018-04-08T16:40:34.392Z,25.50
2018-04-08T16:43:02.702Z,25.30
2018-04-08T16:45:31.039Z,25.20
2018-04-08T16:47:59.348Z,25.20
2018-04-08T16:50:27.682Z,25.10
2018-04-08T16:52:56.003Z,25.00
2018-04-08T16:55:24.338Z,24.80
2018-04-08T16:57:52.670Z,24.70
2018-04-08T17:00:21.012Z,24.60
2018-04-08T17:02:49.327Z,24.60
2018-04-08T17:05:17.656Z,24.60
2018-04-08T17:07:45.966Z,24.60
2018-04-08T17:10:14.303Z,24.70
2018-04-08T17:12:42.612Z,25.00
2018-04-08T17:15:10.952Z,25.30
2018-04-08T17:17:39.254Z,25.40
2018-04-08T17:20:07.593Z,25.50
2018-04-08T17:22:35.911Z,25.70
2018-04-08T17:25:04.234Z,25.70
2018-04-08T17:27:32.567Z,25.50
2018-04-08T17:30:00.904Z,25.20
2018-04-08T17:32:29.218Z,24.90
2018-04-08T17:34:57.555Z,24.70
2018-04-08T17:37:25.868Z,24.40
2018-04-08T17:39:54.201Z,24.20
2018-04-08T17:42:22.543Z,23.90
2018-04-08T17:44:50.879Z,23.70
2018-04-08T17:47:19.202Z,23.40
2018-04-08T17:49:47.531Z,23.10
2018-04-08T17:52:15.855Z,22.90
2018-04-08T17:54:44.203Z,22.60
2018-04-08T17:57:12.513Z,22.40
2018-04-08T17:59:40.851Z,22.10
2018-04-08T18:02:09.164Z,21.80
2018-04-08T18:04:37.498Z,21.50
2018-04-08T18:07:05.816Z,21.20
2018-04-08T18:09:34.171Z,21.00
2018-04-08T18:12:02.483Z,20.70
2018-04-08T18:14:30.836Z,20.40
2018-04-08T18:16:59.175Z,20.20
2018-04-08T18:19:27.579Z,19.90
2018-04-08T18:21:55.914Z,19.70
2018-04-08T18:24:24.269Z,19.60
2018-04-08T18:26:52.627Z,19.40
2018-04-08T18:29:20.949Z,19.30
2018-04-08T18:31:49.306Z,19.10
2018-04-08T18:34:17.665Z,19.00
2018-04-08T18:36:46.003Z,18.90
2018-04-08T18:39:14.311Z,18.80
2018-04-08T18:41:42.707Z,18.70
2018-04-08T18:44:11.028Z,18.50
2018-04-08T18:46:39.359Z,18.40
2018-04-08T18:49:07.680Z,18.30
2018-04-08T18:51:36.014Z,18.20
2018-04-08T18:54:04.343Z,18.00
2018-04-08T18:56:32.676Z,18.00
2018-04-08T18:59:00.991Z,17.90
2018-04-08T19:01:29.344Z,17.80
2018-04-08T19:03:57.651Z,17.80
2018-04-08T19:06:25.991Z,17.70
2018-04-08T19:08:54.307Z,17.70
2018-04-08T19:11:22.695Z,17.60
2018-04-08T19:13:51.007Z,17.50
2018-04-08T19:16:19.368Z,17.40
2018-04-08T19:18:47.775Z,17.30
2018-04-08T19:21:16.210Z,17.20
2018-04-08T19:23:48.351Z,17.20
2018-04-08T19:26:16.720Z,17.10
2018-04-08T19:28:45.087Z,17.10
2018-04-08T19:31:13.423Z,17.00
2018-04-08T19:33:41.747Z,17.00
2018-04-08T19:36:10.088Z,17.00
2018-04-08T19:38:38.402Z,16.90
2018-04-08T19:41:06.734Z,16.80
2018-04-08T19:43:35.057Z,16.80
2018-04-08T19:46:03.390Z,16.70
2018-04-08T19:48:31.275Z,16.70
2018-04-08T19:50:59.640Z,16.60
2018-04-08T19:53:27.959Z,16.50
2018-04-08T19:55:56.299Z,16.40
2018-04-08T19:58:24.607Z,16.30
2018-04-08T20:00:52.976Z,16.30
2018-04-08T20:03:21.349Z,16.20
2018-04-08T20:05:49.663Z,16.10
2018-04-08T20:08:18.001Z,16.00
2018-04-08T20:10:46.315Z,15.90
2018-04-08T20:13:13.895Z,15.80
2018-04-08T20:15:42.261Z,15.70
2018-04-08T20:18:10.650Z,15.60
2018-04-08T20:20:38.931Z,15.60
2018-04-08T20:23:07.303Z,15.50
2018-04-08T20:25:35.619Z,15.40
2018-04-08T20:28:03.946Z,15.20
2018-04-08T20:30:32.266Z,15.10
2018-04-08T20:33:00.609Z,15.00
2018-04-08T20:35:28.924Z,14.90
2018-04-08T20:37:57.266Z,14.80
2018-04-08T20:40:25.120Z,14.60
2018-04-08T20:42:53.463Z,14.50
2018-04-08T20:45:21.775Z,14.40
2018-04-08T20:47:50.838Z,14.30
2018-04-08T20:50:19.160Z,14.10
2018-04-08T20:52:47.496Z,14.00
2018-04-08T20:55:15.807Z,13.90
2018-04-08T20:57:44.135Z,13.80
2018-04-08T21:00:12.443Z,13.70
2018-04-08T21:02:40.769Z,13.60
2018-04-08T21:05:09.089Z,13.50
2018-04-08T21:07:37.415Z,13.40
2018-04-08T21:10:05.723Z,13.40
2018-04-08T21:12:34.074Z,13.30
2018-04-08T21:15:02.413Z,13.30
2018-04-08T21:17:30.758Z,13.20
2018-04-08T21:19:59.081Z,13.10
2018-04-08T21:22:27.416Z,13.10
2018-04-08T21:24:55.746Z,13.10
2018-04-08T21:27:24.087Z,13.00
2018-04-08T21:29:52.412Z,12.90
2018-04-08T21:32:20.760Z,12.80
2018-04-08T21:34:49.091Z,12.80
2018-04-08T21:37:17.432Z,12.70
2018-04-08T21:39:45.753Z,12.60
2018-04-08T21:42:14.088Z,12.60
2018-04-08T21:44:42.408Z,12.50
2018-04-08T21:47:10.752Z,12.50
2018-04-08T21:49:39.087Z,12.40
2018-04-08T21:52:07.414Z,12.30
2018-04-08T21:54:35.761Z,12.30
2018-04-08T21:57:04.088Z,12.20
2018-04-08T21:59:32.436Z,12.10
2018-04-08T22:02:00.765Z,12.10
2018-04-08T22:04:29.103Z,12.00
2018-04-08T22:06:57.420Z,11.90
2018-04-08T22:09:25.758Z,11.90
2018-04-08T22:11:54.080Z,11.80
2018-04-08T22:14:22.422Z,11.70
2018-04-08T22:16:50.747Z,11.60
2018-04-08T22:19:19.092Z,11.50
2018-04-08T22:21:47.419Z,11.50
2018-04-08T22:24:15.752Z,11.40
2018-04-08T22:26:44.076Z,11.40
2018-04-08T22:29:12.411Z,11.30
2018-04-08T22:31:40.728Z,11.30
2018-04-08T22:34:08.308Z,11.30
2018-04-08T22:36:36.620Z,11.20
2018-04-08T22:39:05.711Z,11.20
2018-04-08T22:41:34.031Z,11.20
2018-04-08T22:44:02.371Z,11.20
2018-04-08T22:46:30.688Z,11.10
2018-04-08T22:48:59.023Z,11.10
2018-04-08T22:51:27.336Z,11.00
2018-04-08T22:53:55.676Z,11.00
2018-04-08T22:56:23.993Z,10.90
2018-04-08T22:58:52.334Z,10.90
2018-04-08T23:01:20.654Z,10.80
2018-04-08T23:03:49.015Z,10.80
2018-04-08T23:06:17.329Z,10.70
2018-04-08T23:08:45.681Z,10.70
2018-04-08T23:11:14.028Z,10.60
2018-04-08T23:13:42.362Z,10.60
2018-04-08T23:16:10.671Z,10.60
2018-04-08T23:18:39.011Z,10.50
2018-04-08T23:21:07.340Z,10.50
2018-04-08T23:23:35.681Z,10.40
2018-04-08T23:26:03.993Z,10.40
2018-04-08T23:28:32.340Z,10.40
2018-04-08T23:31:00.659Z,10.30
2018-04-08T23:33:28.968Z,10.30
2018-04-08T23:35:57.306Z,10.30
2018-04-08T23:38:25.623Z,10.20
2018-04-08T23:40:53.960Z,10.20
2018-04-08T23:43:22.274Z,10.10
2018-04-08T23:45:50.621Z,10.10
2018-04-08T23:48:18.970Z,10.00
2018-04-08T23:50:47.303Z,9.90
2018-04-08T23:53:15.636Z,9.90
2018-04-08T23:55:43.985Z,9.80
2018-04-08T23:58:12.296Z,9.80
